sensor_id;sensor_type;location;lat;lon;timestamp;temperature;humidity
71297;SHT31;59082;50.658;4.608;2022-12-18T00:00:42;-5.09;99.99
71297;SHT31;59082;50.658;4.608;2022-12-18T00:03:08;-5.21;99.99
71297;SHT31;59082;50.658;4.608;2022-12-18T00:05:33;-5.26;99.99
71297;SHT31;59082;50.658;4.608;2022-12-18T00:07:59;-5.26;99.99
71297;SHT31;59082;50.658;4.608;2022-12-18T00:10:24;-5.31;99.99
71297;SHT31;59082;50.658;4.608;2022-12-18T00:12:50;-5.34;99.99
71297;SHT31;59082;50.658;4.608;2022-12-18T00:15:15;-5.27;99.99
71297;SHT31;59082;50.658;4.608;2022-12-18T00:17:41;-5.34;99.99
71297;SHT31;59082;50.658;4.608;2022-12-18T00:20:07;-5.23;99.99
71297;SHT31;59082;50.658;4.608;2022-12-18T00:22:33;-5.24;99.99
71297;SHT31;59082;50.658;4.608;2022-12-18T00:24:58;-5.37;99.99
71297;SHT31;59082;50.658;4.608;2022-12-18T00:27:24;-5.42;99.99
71297;SHT31;59082;50.658;4.608;2022-12-18T00:29:50;-5.48;99.99
71297;SHT31;59082;50.658;4.608;2022-12-18T00:32:15;-5.55;99.99
71297;SHT31;59082;50.658;4.608;2022-12-18T00:34:40;-5.59;99.99
71297;SHT31;59082;50.658;4.608;2022-12-18T00:37:06;-5.64;99.99
71297;SHT31;59082;50.658;4.608;2022-12-18T00:39:31;-5.68;99.99
71297;SHT31;59082;50.658;4.608;2022-12-18T00:41:57;-5.68;99.99
71297;SHT31;59082;50.658;4.608;2022-12-18T00:44:41;-5.74;99.99
71297;SHT31;59082;50.658;4.608;2022-12-18T00:47:07;-5.68;99.99
71297;SHT31;59082;50.658;4.608;2022-12-18T00:49:32;-5.62;99.99
71297;SHT31;59082;50.658;4.608;2022-12-18T00:51:58;-5.66;99.99
71297;SHT31;59082;50.658;4.608;2022-12-18T00:54:23;-5.61;99.99
71297;SHT31;59082;50.658;4.608;2022-12-18T00:56:49;-5.58;99.99
71297;SHT31;59082;50.658;4.608;2022-12-18T00:59:15;-5.39;99.99
71297;SHT31;59082;50.658;4.608;2022-12-18T01:01:41;-5.37;99.99
71297;SHT31;59082;50.658;4.608;2022-12-18T01:04:07;-5.30;99.99
71297;SHT31;59082;50.658;4.608;2022-12-18T01:06:33;-5.32;99.99
71297;SHT31;59082;50.658;4.608;2022-12-18T01:08:58;-5.27;99.99
71297;SHT31;59082;50.658;4.608;2022-12-18T01:11:24;-5.28;99.99
71297;SHT31;59082;50.658;4.608;2022-12-18T01:13:52;-5.27;99.99
71297;SHT31;59082;50.658;4.608;2022-12-18T01:16:18;-5.30;99.99
71297;SHT31;59082;50.658;4.608;2022-12-18T01:18:44;-5.32;99.99
71297;SHT31;59082;50.658;4.608;2022-12-18T01:21:12;-5.35;99.99
71297;SHT31;59082;50.658;4.608;2022-12-18T01:23:39;-5.37;99.99
71297;SHT31;59082;50.658;4.608;2022-12-18T01:26:08;-5.42;99.99
71297;SHT31;59082;50.658;4.608;2022-12-18T01:28:34;-5.48;99.99
71297;SHT31;59082;50.658;4.608;2022-12-18T01:31:30;-5.48;99.99
71297;SHT31;59082;50.658;4.608;2022-12-18T01:33:56;-5.41;99.99
71297;SHT31;59082;50.658;4.608;2022-12-18T01:36:27;-5.45;99.99
71297;SHT31;59082;50.658;4.608;2022-12-18T01:38:53;-5.47;99.99
71297;SHT31;59082;50.658;4.608;2022-12-18T01:41:25;-5.48;99.99
71297;SHT31;59082;50.658;4.608;2022-12-18T01:43:53;-5.52;99.99
71297;SHT31;59082;50.658;4.608;2022-12-18T01:46:21;-5.58;99.99
71297;SHT31;59082;50.658;4.608;2022-12-18T01:49:01;-5.55;99.99
71297;SHT31;59082;50.658;4.608;2022-12-18T01:51:27;-5.58;99.99
71297;SHT31;59082;50.658;4.608;2022-12-18T01:53:55;-5.54;99.99
71297;SHT31;59082;50.658;4.608;2022-12-18T01:56:21;-5.42;99.99
71297;SHT31;59082;50.658;4.608;2022-12-18T01:59:04;-5.54;99.99
71297;SHT31;59082;50.658;4.608;2022-12-18T02:01:32;-5.39;99.99
71297;SHT31;59082;50.658;4.608;2022-12-18T02:04:22;-5.35;99.99
71297;SHT31;59082;50.658;4.608;2022-12-18T02:06:54;-5.34;99.99
71297;SHT31;59082;50.658;4.608;2022-12-18T02:09:28;-5.23;99.99
71297;SHT31;59082;50.658;4.608;2022-12-18T02:12:21;-5.31;99.99
71297;SHT31;59082;50.658;4.608;2022-12-18T02:17:38;-5.28;99.99
71297;SHT31;59082;50.658;4.608;2022-12-18T02:28:00;-5.71;99.99
71297;SHT31;59082;50.658;4.608;2022-12-18T02:30:29;-5.79;99.99
71297;SHT31;59082;50.658;4.608;2022-12-18T02:32:57;-5.87;99.99
71297;SHT31;59082;50.658;4.608;2022-12-18T02:35:26;-5.93;99.99
71297;SHT31;59082;50.658;4.608;2022-12-18T02:37:53;-5.99;99.99
71297;SHT31;59082;50.658;4.608;2022-12-18T02:40:20;-6.04;99.99
71297;SHT31;59082;50.658;4.608;2022-12-18T02:42:47;-6.11;99.99
71297;SHT31;59082;50.658;4.608;2022-12-18T02:45:12;-6.18;99.99
71297;SHT31;59082;50.658;4.608;2022-12-18T02:47:41;-6.23;99.99
71297;SHT31;59082;50.658;4.608;2022-12-18T03:01:55;-6.45;99.99
71297;SHT31;59082;50.658;4.608;2022-12-18T03:04:31;-6.48;99.99
71297;SHT31;59082;50.658;4.608;2022-12-18T03:07:02;-6.51;99.99
71297;SHT31;59082;50.658;4.608;2022-12-18T03:09:39;-6.54;99.99
71297;SHT31;59082;50.658;4.608;2022-12-18T03:12:19;-6.60;99.99
71297;SHT31;59082;50.658;4.608;2022-12-18T03:15:13;-6.62;99.99
71297;SHT31;59082;50.658;4.608;2022-12-18T03:17:44;-6.60;99.99
71297;SHT31;59082;50.658;4.608;2022-12-18T03:20:14;-6.41;99.99
71297;SHT31;59082;50.658;4.608;2022-12-18T03:22:42;-6.42;99.99
71297;SHT31;59082;50.658;4.608;2022-12-18T03:25:13;-6.44;99.99
71297;SHT31;59082;50.658;4.608;2022-12-18T03:27:43;-6.45;99.99
71297;SHT31;59082;50.658;4.608;2022-12-18T03:30:13;-6.34;99.99
71297;SHT31;59082;50.658;4.608;2022-12-18T03:33:08;-6.07;99.99
71297;SHT31;59082;50.658;4.608;2022-12-18T03:35:38;-5.95;99.99
71297;SHT31;59082;50.658;4.608;2022-12-18T03:38:04;-6.04;99.99
71297;SHT31;59082;50.658;4.608;2022-12-18T03:40:45;-6.02;99.99
71297;SHT31;59082;50.658;4.608;2022-12-18T03:45:54;-6.06;99.99
71297;SHT31;59082;50.658;4.608;2022-12-18T03:51:00;-6.03;99.99
71297;SHT31;59082;50.658;4.608;2022-12-18T03:53:47;-5.97;99.99
71297;SHT31;59082;50.658;4.608;2022-12-18T03:56:15;-5.79;99.99
71297;SHT31;59082;50.658;4.608;2022-12-18T03:58:43;-5.81;99.99
71297;SHT31;59082;50.658;4.608;2022-12-18T04:01:12;-5.69;99.99
71297;SHT31;59082;50.658;4.608;2022-12-18T04:03:39;-5.54;99.99
71297;SHT31;59082;50.658;4.608;2022-12-18T04:06:06;-5.56;99.99
71297;SHT31;59082;50.658;4.608;2022-12-18T04:08:32;-5.61;99.99
71297;SHT31;59082;50.658;4.608;2022-12-18T04:11:00;-5.66;99.99
71297;SHT31;59082;50.658;4.608;2022-12-18T04:13:32;-5.72;99.99
71297;SHT31;59082;50.658;4.608;2022-12-18T04:15:59;-5.51;99.99
71297;SHT31;59082;50.658;4.608;2022-12-18T04:18:24;-5.62;99.99
71297;SHT31;59082;50.658;4.608;2022-12-18T04:20:50;-5.65;99.99
71297;SHT31;59082;50.658;4.608;2022-12-18T04:23:15;-5.75;99.99
71297;SHT31;59082;50.658;4.608;2022-12-18T04:25:41;-5.87;99.99
71297;SHT31;59082;50.658;4.608;2022-12-18T04:28:07;-5.92;99.99
71297;SHT31;59082;50.658;4.608;2022-12-18T04:30:32;-6.10;99.99
71297;SHT31;59082;50.658;4.608;2022-12-18T04:32:58;-6.03;99.99
71297;SHT31;59082;50.658;4.608;2022-12-18T04:35:23;-6.10;99.99
71297;SHT31;59082;50.658;4.608;2022-12-18T04:37:49;-6.10;99.99
71297;SHT31;59082;50.658;4.608;2022-12-18T04:40:14;-6.21;99.99
71297;SHT31;59082;50.658;4.608;2022-12-18T04:42:40;-6.33;99.99
71297;SHT31;59082;50.658;4.608;2022-12-18T04:45:07;-6.44;99.99
71297;SHT31;59082;50.658;4.608;2022-12-18T04:47:32;-6.51;99.99
71297;SHT31;59082;50.658;4.608;2022-12-18T04:49:58;-6.58;99.99
71297;SHT31;59082;50.658;4.608;2022-12-18T04:52:23;-6.65;99.99
71297;SHT31;59082;50.658;4.608;2022-12-18T04:54:49;-6.72;99.99
71297;SHT31;59082;50.658;4.608;2022-12-18T04:57:15;-6.72;99.99
71297;SHT31;59082;50.658;4.608;2022-12-18T04:59:40;-6.78;99.99
71297;SHT31;59082;50.658;4.608;2022-12-18T05:02:06;-6.71;99.99
71297;SHT31;59082;50.658;4.608;2022-12-18T05:04:31;-6.62;99.99
71297;SHT31;59082;50.658;4.608;2022-12-18T05:06:57;-6.58;99.99
71297;SHT31;59082;50.658;4.608;2022-12-18T05:09:23;-6.45;99.99
71297;SHT31;59082;50.658;4.608;2022-12-18T05:11:48;-6.28;99.99
71297;SHT31;59082;50.658;4.608;2022-12-18T05:14:14;-6.33;99.99
71297;SHT31;59082;50.658;4.608;2022-12-18T05:16:39;-6.20;99.99
71297;SHT31;59082;50.658;4.608;2022-12-18T05:19:05;-6.09;99.99
71297;SHT31;59082;50.658;4.608;2022-12-18T05:21:30;-5.97;99.99
71297;SHT31;59082;50.658;4.608;2022-12-18T05:23:56;-5.85;99.99
71297;SHT31;59082;50.658;4.608;2022-12-18T05:26:21;-5.81;99.99
71297;SHT31;59082;50.658;4.608;2022-12-18T05:28:47;-5.75;99.99
71297;SHT31;59082;50.658;4.608;2022-12-18T05:31:13;-5.79;99.99
71297;SHT31;59082;50.658;4.608;2022-12-18T05:33:39;-5.89;99.99
71297;SHT31;59082;50.658;4.608;2022-12-18T05:36:06;-5.99;99.99
71297;SHT31;59082;50.658;4.608;2022-12-18T05:38:34;-6.06;99.99
71297;SHT31;59082;50.658;4.608;2022-12-18T05:41:00;-6.13;99.99
71297;SHT31;59082;50.658;4.608;2022-12-18T05:43:26;-6.11;99.99
71297;SHT31;59082;50.658;4.608;2022-12-18T05:45:52;-6.18;99.99
71297;SHT31;59082;50.658;4.608;2022-12-18T05:48:18;-6.27;99.99
71297;SHT31;59082;50.658;4.608;2022-12-18T05:50:46;-6.18;99.99
71297;SHT31;59082;50.658;4.608;2022-12-18T05:53:13;-6.14;99.99
71297;SHT31;59082;50.658;4.608;2022-12-18T05:55:40;-6.20;99.99
71297;SHT31;59082;50.658;4.608;2022-12-18T05:58:07;-6.27;99.99
71297;SHT31;59082;50.658;4.608;2022-12-18T06:00:36;-6.27;99.99
71297;SHT31;59082;50.658;4.608;2022-12-18T06:03:05;-6.27;99.99
71297;SHT31;59082;50.658;4.608;2022-12-18T06:05:38;-6.33;99.99
71297;SHT31;59082;50.658;4.608;2022-12-18T06:08:04;-6.30;99.99
71297;SHT31;59082;50.658;4.608;2022-12-18T06:10:30;-6.15;99.99
71297;SHT31;59082;50.658;4.608;2022-12-18T06:12:56;-6.24;99.99
71297;SHT31;59082;50.658;4.608;2022-12-18T06:15:22;-6.11;99.99
71297;SHT31;59082;50.658;4.608;2022-12-18T06:17:47;-6.11;99.99
71297;SHT31;59082;50.658;4.608;2022-12-18T06:20:13;-6.07;99.99
71297;SHT31;59082;50.658;4.608;2022-12-18T06:22:38;-6.06;99.99
71297;SHT31;59082;50.658;4.608;2022-12-18T06:25:04;-5.90;99.99
71297;SHT31;59082;50.658;4.608;2022-12-18T06:27:31;-6.03;99.99
71297;SHT31;59082;50.658;4.608;2022-12-18T06:29:59;-6.04;99.99
71297;SHT31;59082;50.658;4.608;2022-12-18T06:32:25;-6.15;99.99
71297;SHT31;59082;50.658;4.608;2022-12-18T06:34:50;-6.27;99.99
71297;SHT31;59082;50.658;4.608;2022-12-18T06:37:16;-6.30;99.99
71297;SHT31;59082;50.658;4.608;2022-12-18T06:39:41;-6.33;99.99
71297;SHT31;59082;50.658;4.608;2022-12-18T06:42:07;-6.38;99.99
71297;SHT31;59082;50.658;4.608;2022-12-18T06:44:32;-6.35;99.99
71297;SHT31;59082;50.658;4.608;2022-12-18T06:46:58;-6.35;99.99
71297;SHT31;59082;50.658;4.608;2022-12-18T06:49:23;-6.40;99.99
71297;SHT31;59082;50.658;4.608;2022-12-18T06:51:49;-6.34;99.99
71297;SHT31;59082;50.658;4.608;2022-12-18T06:54:15;-6.35;99.99
71297;SHT31;59082;50.658;4.608;2022-12-18T06:56:41;-6.34;99.99
71297;SHT31;59082;50.658;4.608;2022-12-18T06:59:06;-6.34;99.99
71297;SHT31;59082;50.658;4.608;2022-12-18T07:01:32;-6.34;99.99
71297;SHT31;59082;50.658;4.608;2022-12-18T07:03:57;-6.30;99.99
71297;SHT31;59082;50.658;4.608;2022-12-18T07:06:25;-6.30;99.99
71297;SHT31;59082;50.658;4.608;2022-12-18T07:08:53;-6.25;99.99
71297;SHT31;59082;50.658;4.608;2022-12-18T07:11:19;-6.24;99.99
71297;SHT31;59082;50.658;4.608;2022-12-18T07:13:46;-6.11;99.99
71297;SHT31;59082;50.658;4.608;2022-12-18T07:16:14;-6.15;99.99
71297;SHT31;59082;50.658;4.608;2022-12-18T07:18:40;-6.06;99.99
71297;SHT31;59082;50.658;4.608;2022-12-18T07:21:09;-5.89;99.99
71297;SHT31;59082;50.658;4.608;2022-12-18T07:23:35;-5.96;99.99
71297;SHT31;59082;50.658;4.608;2022-12-18T07:26:12;-5.97;99.99
71297;SHT31;59082;50.658;4.608;2022-12-18T07:28:39;-5.95;99.99
71297;SHT31;59082;50.658;4.608;2022-12-18T07:31:07;-5.95;99.99
71297;SHT31;59082;50.658;4.608;2022-12-18T07:33:33;-5.81;99.99
71297;SHT31;59082;50.658;4.608;2022-12-18T07:36:09;-5.82;99.99
71297;SHT31;59082;50.658;4.608;2022-12-18T07:38:35;-5.82;99.99
71297;SHT31;59082;50.658;4.608;2022-12-18T07:41:09;-5.81;99.99
71297;SHT31;59082;50.658;4.608;2022-12-18T07:43:36;-5.76;99.99
71297;SHT31;59082;50.658;4.608;2022-12-18T07:46:03;-5.71;99.99
71297;SHT31;59082;50.658;4.608;2022-12-18T07:48:29;-5.74;99.99
71297;SHT31;59082;50.658;4.608;2022-12-18T07:51:00;-5.78;99.99
71297;SHT31;59082;50.658;4.608;2022-12-18T07:53:26;-5.71;99.99
71297;SHT31;59082;50.658;4.608;2022-12-18T07:55:59;-5.68;99.99
71297;SHT31;59082;50.658;4.608;2022-12-18T07:58:25;-5.72;99.99
71297;SHT31;59082;50.658;4.608;2022-12-18T08:00:51;-5.68;99.99
71297;SHT31;59082;50.658;4.608;2022-12-18T08:03:18;-5.64;99.99
71297;SHT31;59082;50.658;4.608;2022-12-18T08:05:43;-5.55;99.99
71297;SHT31;59082;50.658;4.608;2022-12-18T08:08:09;-5.58;99.99
71297;SHT31;59082;50.658;4.608;2022-12-18T08:10:34;-5.50;99.99
71297;SHT31;59082;50.658;4.608;2022-12-18T08:13:00;-5.52;99.99
71297;SHT31;59082;50.658;4.608;2022-12-18T08:15:26;-5.48;99.99
71297;SHT31;59082;50.658;4.608;2022-12-18T08:17:51;-5.35;99.99
71297;SHT31;59082;50.658;4.608;2022-12-18T08:20:17;-5.24;99.99
71297;SHT31;59082;50.658;4.608;2022-12-18T08:22:44;-5.11;99.99
71297;SHT31;59082;50.658;4.608;2022-12-18T08:25:10;-5.00;99.99
71297;SHT31;59082;50.658;4.608;2022-12-18T08:27:36;-4.88;99.99
71297;SHT31;59082;50.658;4.608;2022-12-18T08:30:03;-4.65;99.99
71297;SHT31;59082;50.658;4.608;2022-12-18T08:32:29;-4.54;99.99
71297;SHT31;59082;50.658;4.608;2022-12-18T08:34:55;-4.28;99.99
71297;SHT31;59082;50.658;4.608;2022-12-18T08:37:20;-4.17;99.99
71297;SHT31;59082;50.658;4.608;2022-12-18T08:39:46;-4.06;99.99
71297;SHT31;59082;50.658;4.608;2022-12-18T08:42:11;-4.02;99.99
71297;SHT31;59082;50.658;4.608;2022-12-18T08:44:55;-3.85;99.99
71297;SHT31;59082;50.658;4.608;2022-12-18T08:47:21;-3.79;99.99
71297;SHT31;59082;50.658;4.608;2022-12-18T08:49:46;-3.58;99.17
71297;SHT31;59082;50.658;4.608;2022-12-18T08:52:12;-3.52;99.27
71297;SHT31;59082;50.658;4.608;2022-12-18T08:54:37;-3.41;99.65
71297;SHT31;59082;50.658;4.608;2022-12-18T08:57:03;-3.27;98.38
71297;SHT31;59082;50.658;4.608;2022-12-18T08:59:28;-3.13;98.17
71297;SHT31;59082;50.658;4.608;2022-12-18T09:01:55;-3.01;98.60
71297;SHT31;59082;50.658;4.608;2022-12-18T09:04:21;-2.95;97.53
71297;SHT31;59082;50.658;4.608;2022-12-18T09:06:47;-2.76;97.63
71297;SHT31;59082;50.658;4.608;2022-12-18T09:09:12;-2.64;98.01
71297;SHT31;59082;50.658;4.608;2022-12-18T09:11:38;-2.51;98.49
71297;SHT31;59082;50.658;4.608;2022-12-18T09:14:03;-2.38;97.16
71297;SHT31;59082;50.658;4.608;2022-12-18T09:16:30;-2.26;96.04
71297;SHT31;59082;50.658;4.608;2022-12-18T09:18:57;-2.06;96.01
71297;SHT31;59082;50.658;4.608;2022-12-18T09:21:26;-1.87;95.28
71297;SHT31;59082;50.658;4.608;2022-12-18T09:23:58;-1.73;93.82
71297;SHT31;59082;50.658;4.608;2022-12-18T09:26:25;-1.55;94.51
71297;SHT31;59082;50.658;4.608;2022-12-18T09:29:02;-1.38;94.29
71297;SHT31;59082;50.658;4.608;2022-12-18T09:31:28;-1.27;95.45
71297;SHT31;59082;50.658;4.608;2022-12-18T09:33:55;-1.21;94.72
71297;SHT31;59082;50.658;4.608;2022-12-18T09:36:21;-1.13;93.58
71297;SHT31;59082;50.658;4.608;2022-12-18T09:38:46;-1.11;94.29
71297;SHT31;59082;50.658;4.608;2022-12-18T09:44:32;-0.90;95.43
71297;SHT31;59082;50.658;4.608;2022-12-18T09:49:48;-0.77;92.40
71297;SHT31;59082;50.658;4.608;2022-12-18T09:52:37;-0.68;92.55
71297;SHT31;59082;50.658;4.608;2022-12-18T09:55:16;-0.58;94.31
71297;SHT31;59082;50.658;4.608;2022-12-18T09:57:53;-0.59;95.12
71297;SHT31;59082;50.658;4.608;2022-12-18T10:00:24;-0.59;95.84
71297;SHT31;59082;50.658;4.608;2022-12-18T10:02:59;-0.52;94.77
71297;SHT31;59082;50.658;4.608;2022-12-18T10:05:37;-0.31;94.39
71297;SHT31;59082;50.658;4.608;2022-12-18T10:08:23;-0.27;92.46
71297;SHT31;59082;50.658;4.608;2022-12-18T10:10:57;-0.34;90.61
71297;SHT31;59082;50.658;4.608;2022-12-18T10:13:40;-0.32;91.40
71297;SHT31;59082;50.658;4.608;2022-12-18T10:16:22;-0.29;90.73
71297;SHT31;59082;50.658;4.608;2022-12-18T10:21:48;-0.14;90.28
71297;SHT31;59082;50.658;4.608;2022-12-18T10:24:39;-0.06;90.49
71297;SHT31;59082;50.658;4.608;2022-12-18T10:27:14;-0.06;90.81
71297;SHT31;59082;50.658;4.608;2022-12-18T10:29:44;-0.03;89.84
71297;SHT31;59082;50.658;4.608;2022-12-18T10:32:18;0.03;90.10
71297;SHT31;59082;50.658;4.608;2022-12-18T10:34:51;0.00;89.58
71297;SHT31;59082;50.658;4.608;2022-12-18T10:37:20;0.06;90.83
71297;SHT31;59082;50.658;4.608;2022-12-18T10:40:14;0.13;90.92
71297;SHT31;59082;50.658;4.608;2022-12-18T10:42:40;0.15;90.08
71297;SHT31;59082;50.658;4.608;2022-12-18T10:47:35;0.21;89.36
71297;SHT31;59082;50.658;4.608;2022-12-18T10:50:02;0.20;89.16
71297;SHT31;59082;50.658;4.608;2022-12-18T10:52:27;0.31;88.67
71297;SHT31;59082;50.658;4.608;2022-12-18T10:55:02;0.38;89.00
71297;SHT31;59082;50.658;4.608;2022-12-18T10:57:37;0.49;88.35
71297;SHT31;59082;50.658;4.608;2022-12-18T11:02:48;0.58;88.76
71297;SHT31;59082;50.658;4.608;2022-12-18T11:05:31;0.57;90.02
71297;SHT31;59082;50.658;4.608;2022-12-18T11:07:58;0.78;89.70
71297;SHT31;59082;50.658;4.608;2022-12-18T11:10:35;0.86;89.60
71297;SHT31;59082;50.658;4.608;2022-12-18T11:13:18;0.80;89.55
71297;SHT31;59082;50.658;4.608;2022-12-18T11:15:46;0.87;88.52
71297;SHT31;59082;50.658;4.608;2022-12-18T11:18:49;0.79;88.22
71297;SHT31;59082;50.658;4.608;2022-12-18T11:21:10;0.82;88.16
71297;SHT31;59082;50.658;4.608;2022-12-18T11:23:47;0.76;88.09
71297;SHT31;59082;50.658;4.608;2022-12-18T11:26:13;0.85;88.93
71297;SHT31;59082;50.658;4.608;2022-12-18T11:28:44;0.82;88.68
71297;SHT31;59082;50.658;4.608;2022-12-18T11:31:26;0.87;89.62
71297;SHT31;59082;50.658;4.608;2022-12-18T11:34:23;0.86;89.90
71297;SHT31;59082;50.658;4.608;2022-12-18T11:36:52;0.90;88.61
71297;SHT31;59082;50.658;4.608;2022-12-18T11:39:29;0.82;88.55
71297;SHT31;59082;50.658;4.608;2022-12-18T11:42:00;0.78;87.51
71297;SHT31;59082;50.658;4.608;2022-12-18T11:44:54;0.95;89.53
71297;SHT31;59082;50.658;4.608;2022-12-18T11:50:17;0.79;87.50
71297;SHT31;59082;50.658;4.608;2022-12-18T11:52:43;0.79;87.33
71297;SHT31;59082;50.658;4.608;2022-12-18T12:00:27;0.96;90.05
71297;SHT31;59082;50.658;4.608;2022-12-18T12:03:18;1.01;89.24
71297;SHT31;59082;50.658;4.608;2022-12-18T12:17:03;1.00;89.91
71297;SHT31;59082;50.658;4.608;2022-12-18T12:30:49;1.17;89.72
71297;SHT31;59082;50.658;4.608;2022-12-18T12:36:08;1.24;88.80
71297;SHT31;59082;50.658;4.608;2022-12-18T12:38:43;1.31;88.68
71297;SHT31;59082;50.658;4.608;2022-12-18T12:41:14;1.28;87.50
71297;SHT31;59082;50.658;4.608;2022-12-18T12:44:05;1.35;89.49
71297;SHT31;59082;50.658;4.608;2022-12-18T12:46:35;1.44;88.88
71297;SHT31;59082;50.658;4.608;2022-12-18T12:49:03;1.38;89.03
71297;SHT31;59082;50.658;4.608;2022-12-18T12:51:40;1.37;88.20
71297;SHT31;59082;50.658;4.608;2022-12-18T12:54:15;1.44;88.81
71297;SHT31;59082;50.658;4.608;2022-12-18T12:56:50;1.33;88.90
71297;SHT31;59082;50.658;4.608;2022-12-18T12:59:26;1.45;89.79
71297;SHT31;59082;50.658;4.608;2022-12-18T13:02:14;1.41;88.56
71297;SHT31;59082;50.658;4.608;2022-12-18T13:04:49;1.37;88.29
71297;SHT31;59082;50.658;4.608;2022-12-18T13:07:35;1.47;88.30
71297;SHT31;59082;50.658;4.608;2022-12-18T13:15:40;1.40;88.32
71297;SHT31;59082;50.658;4.608;2022-12-18T13:23:29;1.06;89.29
71297;SHT31;59082;50.658;4.608;2022-12-18T13:25:55;1.00;89.40
71297;SHT31;59082;50.658;4.608;2022-12-18T13:36:43;1.06;90.47
71297;SHT31;59082;50.658;4.608;2022-12-18T13:39:25;0.95;90.69
71297;SHT31;59082;50.658;4.608;2022-12-18T13:44:40;0.83;89.29
71297;SHT31;59082;50.658;4.608;2022-12-18T13:49:50;0.96;90.30
71297;SHT31;59082;50.658;4.608;2022-12-18T13:52:32;0.93;89.68
71297;SHT31;59082;50.658;4.608;2022-12-18T13:54:59;0.92;89.96
71297;SHT31;59082;50.658;4.608;2022-12-18T13:57:36;0.85;89.11
71297;SHT31;59082;50.658;4.608;2022-12-18T14:02:47;0.79;89.49
71297;SHT31;59082;50.658;4.608;2022-12-18T14:07:48;0.73;89.79
71297;SHT31;59082;50.658;4.608;2022-12-18T14:10:15;0.68;90.42
71297;SHT31;59082;50.658;4.608;2022-12-18T14:12:45;0.72;90.20
71297;SHT31;59082;50.658;4.608;2022-12-18T14:15:30;0.66;89.36
71297;SHT31;59082;50.658;4.608;2022-12-18T14:20:41;0.62;90.95
71297;SHT31;59082;50.658;4.608;2022-12-18T14:25:53;0.52;90.31
71297;SHT31;59082;50.658;4.608;2022-12-18T14:28:19;0.45;91.02
71297;SHT31;59082;50.658;4.608;2022-12-18T14:30:46;0.41;90.37
71297;SHT31;59082;50.658;4.608;2022-12-18T14:33:19;0.41;91.07
71297;SHT31;59082;50.658;4.608;2022-12-18T14:36:03;0.45;91.58
71297;SHT31;59082;50.658;4.608;2022-12-18T14:38:34;0.45;90.77
71297;SHT31;59082;50.658;4.608;2022-12-18T14:41:02;0.44;91.38
71297;SHT31;59082;50.658;4.608;2022-12-18T14:43:31;0.38;91.28
71297;SHT31;59082;50.658;4.608;2022-12-18T14:45:57;0.44;90.97
71297;SHT31;59082;50.658;4.608;2022-12-18T14:48:40;0.40;90.72
71297;SHT31;59082;50.658;4.608;2022-12-18T14:53:46;0.28;92.64
71297;SHT31;59082;50.658;4.608;2022-12-18T14:59:06;0.22;91.07
71297;SHT31;59082;50.658;4.608;2022-12-18T15:04:28;0.21;92.44
71297;SHT31;59082;50.658;4.608;2022-12-18T15:07:15;0.13;92.19
71297;SHT31;59082;50.658;4.608;2022-12-18T15:09:43;0.15;92.19
71297;SHT31;59082;50.658;4.608;2022-12-18T15:12:34;0.18;92.69
71297;SHT31;59082;50.658;4.608;2022-12-18T15:15:00;0.14;92.77
71297;SHT31;59082;50.658;4.608;2022-12-18T15:17:25;0.10;91.74
71297;SHT31;59082;50.658;4.608;2022-12-18T15:19:53;0.14;92.49
71297;SHT31;59082;50.658;4.608;2022-12-18T15:22:30;0.13;92.51
71297;SHT31;59082;50.658;4.608;2022-12-18T15:24:59;0.09;92.26
71297;SHT31;59082;50.658;4.608;2022-12-18T15:27:33;0.01;91.95
71297;SHT31;59082;50.658;4.608;2022-12-18T15:30:18;0.01;92.59
71297;SHT31;59082;50.658;4.608;2022-12-18T15:32:44;0.06;91.64
71297;SHT31;59082;50.658;4.608;2022-12-18T15:37:38;0.10;92.66
71297;SHT31;59082;50.658;4.608;2022-12-18T15:40:04;0.07;92.92
71297;SHT31;59082;50.658;4.608;2022-12-18T15:42:30;0.04;92.91
71297;SHT31;59082;50.658;4.608;2022-12-18T15:45:15;-0.03;92.70
71297;SHT31;59082;50.658;4.608;2022-12-18T15:47:41;0.01;91.86
71297;SHT31;59082;50.658;4.608;2022-12-18T15:50:10;0.00;92.80
71297;SHT31;59082;50.658;4.608;2022-12-18T15:52:43;0.07;91.70
71297;SHT31;59082;50.658;4.608;2022-12-18T15:55:20;0.13;91.40
71297;SHT31;59082;50.658;4.608;2022-12-18T15:58:05;0.10;91.37
71297;SHT31;59082;50.658;4.608;2022-12-18T16:00:32;0.20;90.21
71297;SHT31;59082;50.658;4.608;2022-12-18T16:02:58;0.14;89.85
71297;SHT31;59082;50.658;4.608;2022-12-18T16:05:24;0.21;90.82
71297;SHT31;59082;50.658;4.608;2022-12-18T16:07:51;0.25;90.51
71297;SHT31;59082;50.658;4.608;2022-12-18T16:10:16;0.25;89.85
71297;SHT31;59082;50.658;4.608;2022-12-18T16:12:42;0.24;90.12
71297;SHT31;59082;50.658;4.608;2022-12-18T16:15:12;0.25;90.40
71297;SHT31;59082;50.658;4.608;2022-12-18T16:17:39;0.28;90.62
71297;SHT31;59082;50.658;4.608;2022-12-18T16:20:08;0.30;89.29
71297;SHT31;59082;50.658;4.608;2022-12-18T16:22:36;0.28;89.97
71297;SHT31;59082;50.658;4.608;2022-12-18T16:25:02;0.32;89.39
71297;SHT31;59082;50.658;4.608;2022-12-18T16:27:28;0.32;90.06
71297;SHT31;59082;50.658;4.608;2022-12-18T16:29:53;0.28;89.90
71297;SHT31;59082;50.658;4.608;2022-12-18T16:32:20;0.30;90.97
71297;SHT31;59082;50.658;4.608;2022-12-18T16:34:46;0.27;90.85
71297;SHT31;59082;50.658;4.608;2022-12-18T16:37:14;0.34;90.46
71297;SHT31;59082;50.658;4.608;2022-12-18T16:39:40;0.32;89.99
71297;SHT31;59082;50.658;4.608;2022-12-18T16:42:11;0.37;89.74
71297;SHT31;59082;50.658;4.608;2022-12-18T16:44:42;0.40;89.39
71297;SHT31;59082;50.658;4.608;2022-12-18T16:47:08;0.36;89.58
71297;SHT31;59082;50.658;4.608;2022-12-18T16:49:34;0.38;88.84
71297;SHT31;59082;50.658;4.608;2022-12-18T16:52:00;0.41;89.43
71297;SHT31;59082;50.658;4.608;2022-12-18T16:54:25;0.44;89.78
71297;SHT31;59082;50.658;4.608;2022-12-18T16:56:54;0.47;89.53
71297;SHT31;59082;50.658;4.608;2022-12-18T16:59:20;0.44;90.03
71297;SHT31;59082;50.658;4.608;2022-12-18T17:01:46;0.44;89.84
71297;SHT31;59082;50.658;4.608;2022-12-18T17:04:12;0.48;89.44
71297;SHT31;59082;50.658;4.608;2022-12-18T17:06:41;0.54;88.68
71297;SHT31;59082;50.658;4.608;2022-12-18T17:09:10;0.59;88.16
71297;SHT31;59082;50.658;4.608;2022-12-18T17:11:36;0.57;88.80
71297;SHT31;59082;50.658;4.608;2022-12-18T17:14:06;0.61;89.31
71297;SHT31;59082;50.658;4.608;2022-12-18T17:16:32;0.58;89.29
71297;SHT31;59082;50.658;4.608;2022-12-18T17:18:58;0.62;89.10
71297;SHT31;59082;50.658;4.608;2022-12-18T17:21:23;0.66;89.51
71297;SHT31;59082;50.658;4.608;2022-12-18T17:23:49;0.65;89.52
71297;SHT31;59082;50.658;4.608;2022-12-18T17:26:15;0.66;88.74
71297;SHT31;59082;50.658;4.608;2022-12-18T17:28:40;0.65;89.58
71297;SHT31;59082;50.658;4.608;2022-12-18T17:31:11;0.66;89.32
71297;SHT31;59082;50.658;4.608;2022-12-18T17:33:37;0.64;90.21
71297;SHT31;59082;50.658;4.608;2022-12-18T17:36:02;0.72;89.72
71297;SHT31;59082;50.658;4.608;2022-12-18T17:38:28;0.68;90.18
71297;SHT31;59082;50.658;4.608;2022-12-18T17:40:54;0.66;90.59
71297;SHT31;59082;50.658;4.608;2022-12-18T17:43:24;0.69;90.21
71297;SHT31;59082;50.658;4.608;2022-12-18T17:45:49;0.65;91.50
71297;SHT31;59082;50.658;4.608;2022-12-18T17:48:15;0.70;92.00
71297;SHT31;59082;50.658;4.608;2022-12-18T17:50:40;0.70;93.53
71297;SHT31;59082;50.658;4.608;2022-12-18T17:53:06;0.66;92.62